Terminal Aerodrome Forecast
Issued by NWS Duluth, MN

Home | Current Version | Previous Version | Text Only | Print | Product List | Glossary On
Versions: 1 2 3 4 5 6 7 8 9 10 11 12 13 14 15 16 17 18 19 20 21
381
FTUS43 KDLH 192331
TAFINL
TAF
KINL 192331Z 2000/2024 10004KT P6SM OVC200
     FM201600 10010G17KT P6SM OVC150=

USA.gov is the U.S. government's official web portal to all federal, state and local government web resources and services.